createdAt,value
2019-02-15T17:50:19.750Z,57.85
2019-02-15T17:52:53.111Z,57.93
2019-02-15T17:55:26.988Z,58.37
2019-02-15T17:58:00.867Z,58.93
2019-02-15T18:00:34.034Z,59.15
2019-02-15T18:03:07.863Z,58.63
2019-02-15T18:05:41.392Z,57.97
2019-02-15T18:08:14.550Z,57.75
2019-02-15T18:10:48.230Z,54.30
2019-02-15T18:13:21.370Z,53.08
2019-02-15T18:15:55.123Z,53.54
2019-02-15T18:18:28.599Z,51.97
2019-02-15T18:21:01.994Z,52.74
2019-02-15T18:23:35.293Z,52.44
2019-02-15T18:26:09.286Z,51.64
2019-02-15T18:28:42.883Z,51.26
2019-02-15T18:31:16.529Z,50.27
2019-02-15T18:33:50.390Z,49.88
2019-02-15T18:36:24.209Z,49.96
2019-02-15T18:38:57.638Z,49.51
2019-02-15T18:41:32.126Z,49.58
2019-02-15T18:44:05.614Z,49.54
2019-02-15T18:46:39.215Z,49.29
2019-02-15T18:49:19.196Z,49.19
2019-02-15T18:51:48.710Z,49.75
2019-02-15T18:54:22.631Z,48.86
2019-02-15T18:56:56.577Z,49.34
2019-02-15T18:59:29.611Z,48.78
2019-02-15T19:02:03.422Z,48.91
2019-02-15T19:04:36.811Z,48.42
2019-02-15T19:07:10.240Z,48.42
2019-02-15T19:09:44.103Z,48.59
2019-02-15T19:12:17.618Z,48.04
2019-02-15T19:14:51.094Z,47.82
2019-02-15T19:17:25.107Z,47.49
2019-02-15T19:19:57.912Z,47.23
2019-02-15T19:22:30.925Z,46.99
2019-02-15T19:25:03.963Z,47.38
2019-02-15T19:27:37.055Z,46.96
2019-02-15T19:30:12.699Z,46.76
2019-02-15T19:32:47.067Z,47.22
2019-02-15T19:35:20.271Z,46.58
2019-02-15T19:37:54.268Z,45.98
2019-02-15T19:40:27.386Z,46.13
2019-02-15T19:43:01.442Z,45.82
2019-02-15T19:45:34.856Z,45.58
2019-02-15T19:48:08.205Z,45.39
2019-02-15T19:50:41.020Z,45.49
2019-02-15T19:53:14.231Z,44.84
2019-02-15T19:55:47.275Z,44.79
2019-02-15T19:58:20.783Z,44.57
2019-02-15T20:00:54.332Z,44.64
2019-02-15T20:03:27.575Z,44.23
2019-02-15T20:06:01.282Z,43.84
2019-02-15T20:08:35.311Z,43.77
2019-02-15T20:11:09.158Z,44.04
2019-02-15T20:13:43.141Z,43.90
2019-02-15T20:16:16.226Z,44.10
2019-02-15T20:18:49.291Z,43.74
2019-02-15T20:21:22.911Z,43.50
2019-02-15T20:23:56.554Z,43.57
2019-02-15T20:26:30.390Z,43.67
2019-02-15T20:29:03.511Z,43.57
2019-02-15T20:31:36.300Z,43.46
2019-02-15T20:34:08.940Z,43.26
2019-02-15T20:36:42.079Z,42.98
2019-02-15T20:39:15.641Z,43.34
2019-02-15T20:41:48.775Z,43.27
2019-02-15T20:44:22.067Z,43.02
2019-02-15T20:46:55.732Z,42.81
2019-02-15T20:49:28.462Z,43.14
2019-02-15T20:52:02.360Z,42.72
2019-02-15T20:54:36.101Z,42.58
2019-02-15T20:57:09.521Z,43.43
2019-02-15T20:59:43.130Z,42.78
2019-02-15T21:02:16.969Z,43.52
2019-02-15T21:04:50.568Z,43.93
2019-02-15T21:07:23.658Z,44.40
2019-02-15T21:09:57.366Z,44.80
2019-02-15T21:12:31.275Z,45.65
2019-02-15T21:15:05.538Z,46.21
2019-02-15T21:17:39.044Z,47.16
2019-02-15T21:20:12.744Z,48.32
2019-02-15T21:22:46.390Z,49.16
2019-02-15T21:25:20.434Z,50.06
2019-02-15T21:27:53.226Z,50.63
2019-02-15T21:30:26.442Z,51.03
2019-02-15T21:33:00.371Z,50.49
2019-02-15T21:35:33.848Z,50.51
2019-02-15T21:38:06.244Z,50.24
2019-02-15T21:40:40.073Z,49.30
2019-02-15T21:43:13.764Z,49.03
2019-02-15T21:45:47.068Z,48.83
2019-02-15T21:48:20.559Z,48.30
2019-02-15T21:50:53.736Z,48.30
2019-02-15T21:53:26.009Z,48.23
2019-02-15T21:55:59.932Z,48.38
2019-02-15T21:58:33.090Z,49.02
2019-02-15T22:01:06.664Z,49.22
2019-02-15T22:03:40.194Z,49.64
2019-02-15T22:06:13.402Z,51.23
2019-02-15T22:08:46.391Z,52.62
2019-02-15T22:11:22.250Z,53.54
2019-02-15T22:13:56.153Z,54.60
2019-02-15T22:16:29.565Z,55.72
2019-02-15T22:19:03.061Z,56.81
2019-02-15T22:21:36.227Z,57.24
2019-02-15T22:24:09.319Z,57.15
2019-02-15T22:26:42.992Z,57.40
2019-02-15T22:29:16.825Z,57.86
2019-02-15T22:31:49.885Z,58.33
2019-02-15T22:34:22.906Z,57.74
2019-02-15T22:36:55.945Z,57.77
2019-02-15T22:39:29.301Z,58.07
2019-02-15T22:42:02.257Z,57.71
2019-02-15T22:44:36.189Z,57.33
2019-02-15T22:47:09.538Z,56.95
2019-02-15T22:49:43.622Z,57.21
2019-02-15T22:52:17.377Z,58.12
2019-02-15T22:54:50.652Z,59.24
2019-02-15T22:57:23.492Z,59.62
2019-02-15T23:00:00.942Z,59.86
2019-02-15T23:02:32.021Z,60.37
2019-02-15T23:05:05.937Z,61.11
2019-02-15T23:07:39.948Z,61.85
2019-02-15T23:10:13.669Z,62.38
2019-02-15T23:12:47.121Z,63.28
2019-02-15T23:15:20.633Z,63.85
2019-02-15T23:17:53.342Z,64.21
2019-02-15T23:20:26.476Z,64.43
2019-02-15T23:22:59.596Z,64.87
2019-02-15T23:25:32.195Z,64.27
2019-02-15T23:28:05.763Z,64.57
2019-02-15T23:30:39.099Z,65.08
2019-02-15T23:33:13.192Z,64.88
2019-02-15T23:35:46.782Z,64.67
2019-02-15T23:38:19.869Z,64.88
2019-02-15T23:40:53.752Z,64.19
2019-02-15T23:43:27.183Z,64.11
2019-02-15T23:46:01.528Z,63.94
2019-02-15T23:48:35.214Z,63.35
2019-02-15T23:51:09.216Z,62.97
2019-02-15T23:53:42.714Z,63.32
2019-02-15T23:56:15.030Z,63.00
2019-02-15T23:58:48.378Z,62.80
